Beltdiep — PBYF — position and weather

sailwx.info

Track history (hours):
 
Tides and Currents Weather Stations Pressure Air Temp Water Temp Dewpoint Dewpoint Depression Visibility Wind Speed Wind Dir Waves Ship Positions

Beltdiep

Last reported at 2016-Aug-22 14:25 UTC. Time now 2016-Aug-25 01:04 UTC.
Position N 37°41' E 024°28'.

Length 107 m; draft 5.5 m.

Type: Cargo ship. MMSI: 246671000.

Date/timePositionNaut miles runAvg speedWind from/ knotsBaromVisibWave heightAir tempDewpointWater temp
2016-Aug-22 14:25N 37°41' E 024°28'37 9.4
2016-Aug-22 10:25N 37°07' E 024°09'8 8.9
2016-Aug-22 09:32N 36°60' E 024°05'9 9.5
2016-Aug-22 08:33N 36°51' E 024°00'9 8.9
2016-Aug-22 07:33N 36°44' E 023°54'10 9.6
2016-Aug-22 06:31N 36°39' E 023°43'5 5.0
2016-Aug-22 05:33N 36°36' E 023°38'7 7.3
2016-Aug-22 04:33N 36°33' E 023°30'9 8.7
2016-Aug-22 03:33N 36°28' E 023°21'360 9.2
2016-Aug-20 12:14N 36°30' E 015°53'10 9.3
2016-Aug-20 11:07N 36°31' E 015°40'5 9.3
2016-Aug-20 10:33N 36°31' E 015°33'9 9.4
2016-Aug-20 09:33N 36°31' E 015°21'9 9.4
2016-Aug-20 08:33N 36°32' E 015°10'9 8.8
2016-Aug-20 07:33N 36°33' E 014°59'9 9.2
2016-Aug-20 06:33N 36°36' E 014°48'9 9.1
2016-Aug-20 05:34N 36°38' E 014°37'9 9.0
2016-Aug-20 04:34N 36°41' E 014°26'9 9.2
2016-Aug-20 03:33N 36°44' E 014°16'9 9.4
2016-Aug-20 02:34N 36°46' E 014°04'10 9.7
2016-Aug-20 01:34N 36°50' E 013°53'1010.1
2016-Aug-20 00:34N 36°54' E 013°42'1010.0
2016-Aug-19 23:34N 36°59' E 013°31'10 9.8
2016-Aug-19 22:34N 37°03' E 013°20'10 9.8
2016-Aug-19 21:33N 37°08' E 013°09'31 9.7
2016-Aug-19 18:21N 37°22' E 012°34'7 9.3
2016-Aug-19 17:33N 37°25' E 012°26'9 8.9
2016-Aug-19 16:30N 37°30' E 012°15'13 9.8
2016-Aug-19 15:10N 37°36' E 012°01'710.1
2016-Aug-19 14:29N 37°39' E 011°53'1010.1
2016-Aug-19 13:33N 37°43' E 011°42'10 9.7
2016-Aug-19 12:30N 37°48' E 011°31'9 9.8
2016-Aug-19 11:33N 37°52' E 011°20'1010.2
2016-Aug-19 10:33N 37°57' E 011°09'1010.4
2016-Aug-19 09:33N 38°01' E 010°57'10 9.9
2016-Aug-19 08:33N 38°04' E 010°45'1010.0
2016-Aug-19 07:33N 38°07' E 010°33'7 6.9
2016-Aug-19 06:34N 38°09' E 010°25'8 8.1
2016-Aug-19 05:33N 38°11' E 010°14'10 9.7
2016-Aug-19 04:33N 38°14' E 010°03'10 9.8
2016-Aug-19 03:33N 38°17' E 009°51'9 9.5
2016-Aug-19 02:33N 38°19' E 009°39'9 9.3
2016-Aug-19 01:33N 38°22' E 009°28'9 9.4
2016-Aug-19 00:33N 38°25' E 009°16'9 9.4
2016-Aug-18 23:33N 38°28' E 009°05'9 9.4
2016-Aug-18 22:33N 38°30' E 008°53'10 9.5
2016-Aug-18 21:33N 38°33' E 008°42'140 9.3
2016-Aug-18 06:33N 38°33' E 005°43'2010.1
2016-Aug-18 04:32N 38°32' E 005°17'1310.2
2016-Aug-18 03:16N 38°32' E 005°00'7 9.9
2016-Aug-18 02:33N 38°32' E 004°51'10 9.7
2016-Aug-18 01:33N 38°32' E 004°39'11 9.3
2016-Aug-18 00:23N 38°32' E 004°25'8 9.0
2016-Aug-17 23:33N 38°32' E 004°15'9 9.0
2016-Aug-17 22:31N 38°31' E 004°03'9 9.0
2016-Aug-17 21:28N 38°31' E 003°51'8 9.1
2016-Aug-17 20:33N 38°31' E 003°41'9 9.1
2016-Aug-17 19:34N 38°31' E 003°29'9 9.1
2016-Aug-17 18:34N 38°30' E 003°18'9 9.4
2016-Aug-17 17:34N 38°30' E 003°06'9 9.4
2016-Aug-17 16:33N 38°27' E 002°54'10 9.5
2016-Aug-17 15:33N 38°23' E 002°43'10 9.6
2016-Aug-17 14:32N 38°19' E 002°32'10 9.7
2016-Aug-17 13:33N 38°15' E 002°21'29 9.8
2016-Aug-17 10:32N 38°01' E 001°48'10 9.8
2016-Aug-17 09:33N 37°57' E 001°37'10 9.7
2016-Aug-17 08:34N 37°52' E 001°26'11 9.5
2016-Aug-17 07:24N 37°47' E 001°14'8 9.5
2016-Aug-17 06:33N 37°43' E 001°05'19 9.4
2016-Aug-17 04:33N 37°34' E 000°44'9 9.2
2016-Aug-17 03:34N 37°30' E 000°33'9 9.1
2016-Aug-17 02:33N 37°26' E 000°23'9 9.1
2016-Aug-17 01:34N 37°22' E 000°13'9 9.3
2016-Aug-17 00:34N 37°18' E 000°03'10 9.7
2016-Aug-16 23:34N 37°13' W 000°08'10 9.9
2016-Aug-16 22:34N 37°09' W 000°19'1010.1
2016-Aug-16 21:33N 37°04' W 000°31'1010.4
2016-Aug-16 20:34N 36°59' W 000°42'1010.2
2016-Aug-16 19:32N 36°55' W 000°54'32 9.7
2016-Aug-16 16:16N 36°40' W 001°29'35 9.3
2016-Aug-16 12:32N 36°24' W 002°07'10 8.8
2016-Aug-16 11:25N 36°21' W 002°19'8 8.9
2016-Aug-16 10:30N 36°19' W 002°29'9 9.4
2016-Aug-16 09:33N 36°17' W 002°39'12610.2
2016-Aug-15 21:12N 35°57' W 005°13'5 8.4
2016-Aug-15 20:34N 35°55' W 005°19'1 0.8
2016-Aug-15 19:33N 35°54' W 005°19'0 0.0
2016-Aug-15 18:33N 35°54' W 005°19'0 0.0
2016-Aug-15 17:33N 35°54' W 005°19'0 0.0
2016-Aug-15 16:33N 35°54' W 005°19'0 0.0
2016-Aug-15 15:33N 35°54' W 005°19'4 4.3
2016-Aug-15 14:33N 35°57' W 005°23'10 8.9
2016-Aug-15 13:29N 35°55' W 005°35'10 9.9
2016-Aug-15 12:29N 35°54' W 005°47'132 8.8
2016-Aug-14 21:33N 36°23' W 008°26'9 9.3
2016-Aug-14 20:33N 36°25' W 008°38'9 9.2
2016-Aug-14 19:33N 36°28' W 008°48'9 9.1
2016-Aug-14 18:33N 36°30' W 008°59'9 9.2
2016-Aug-14 17:33N 36°33' W 009°10'9 9.0
2016-Aug-14 16:33N 36°37' W 009°20'9 9.4
2016-Aug-14 15:33N 36°44' W 009°28'9 9.0
2016-Aug-14 14:32N 36°52' W 009°34'9 9.5
2016-Aug-14 13:33N 37°01' W 009°37'10 9.5
2016-Aug-14 12:32N 37°10' W 009°39'9 9.5
2016-Aug-14 11:33N 37°20' W 009°42'10 9.8
2016-Aug-14 10:33N 37°29' W 009°45'1010.0
2016-Aug-14 09:33N 37°39' W 009°48'1010.1
2016-Aug-14 08:33N 37°49' W 009°50'1010.2
2016-Aug-14 07:33N 37°59' W 009°53'1010.1
2016-Aug-14 06:33N 38°08' W 009°56'2010.0
2016-Aug-14 04:33N 38°28' W 010°02'10 9.9
2016-Aug-14 03:33N 38°38' W 010°05'10 9.9
2016-Aug-14 02:33N 38°48' W 010°06'10 9.8
2016-Aug-14 01:33N 38°57' W 010°06'1010.2
2016-Aug-14 00:33N 39°07' W 010°04'1010.0
2016-Aug-13 23:33N 39°17' W 010°03'9 9.4
2016-Aug-13 22:33N 39°26' W 009°57'1010.3
2016-Aug-13 21:33N 39°32' W 009°47'1010.2
2016-Aug-13 20:33N 39°39' W 009°37'  
Track history (hours):
 
Tides and Currents Weather Stations Pressure Air Temp Water Temp Dewpoint Dewpoint Depression Visibility Wind Speed Wind Dir Waves Ship Positions

Beltdiep

Last reported at 2016-Aug-22 14:25 UTC. Time now 2016-Aug-25 01:04 UTC.
Position N 37°41' E 024°28'.

Length 107 m; draft 5.5 m.

Type: Cargo ship. MMSI: 246671000.

Date/timePositionNaut miles runAvg speedWind from/ knotsBaromVisibWave heightAir tempDewpointWater temp
2016-Aug-22 14:25N 37°41' E 024°28'37 9.4
2016-Aug-22 10:25N 37°07' E 024°09'8 8.9
2016-Aug-22 09:32N 36°60' E 024°05'9 9.5
2016-Aug-22 08:33N 36°51' E 024°00'9 8.9
2016-Aug-22 07:33N 36°44' E 023°54'10 9.6
2016-Aug-22 06:31N 36°39' E 023°43'5 5.0
2016-Aug-22 05:33N 36°36' E 023°38'7 7.3
2016-Aug-22 04:33N 36°33' E 023°30'9 8.7
2016-Aug-22 03:33N 36°28' E 023°21'360 9.2
2016-Aug-20 12:14N 36°30' E 015°53'10 9.3
2016-Aug-20 11:07N 36°31' E 015°40'5 9.3
2016-Aug-20 10:33N 36°31' E 015°33'9 9.4
2016-Aug-20 09:33N 36°31' E 015°21'9 9.4
2016-Aug-20 08:33N 36°32' E 015°10'9 8.8
2016-Aug-20 07:33N 36°33' E 014°59'9 9.2
2016-Aug-20 06:33N 36°36' E 014°48'9 9.1
2016-Aug-20 05:34N 36°38' E 014°37'9 9.0
2016-Aug-20 04:34N 36°41' E 014°26'9 9.2
2016-Aug-20 03:33N 36°44' E 014°16'9 9.4
2016-Aug-20 02:34N 36°46' E 014°04'10 9.7
2016-Aug-20 01:34N 36°50' E 013°53'1010.1
2016-Aug-20 00:34N 36°54' E 013°42'1010.0
2016-Aug-19 23:34N 36°59' E 013°31'10 9.8
2016-Aug-19 22:34N 37°03' E 013°20'10 9.8
2016-Aug-19 21:33N 37°08' E 013°09'31 9.7
2016-Aug-19 18:21N 37°22' E 012°34'7 9.3
2016-Aug-19 17:33N 37°25' E 012°26'9 8.9
2016-Aug-19 16:30N 37°30' E 012°15'13 9.8
2016-Aug-19 15:10N 37°36' E 012°01'710.1
2016-Aug-19 14:29N 37°39' E 011°53'1010.1
2016-Aug-19 13:33N 37°43' E 011°42'10 9.7
2016-Aug-19 12:30N 37°48' E 011°31'9 9.8
2016-Aug-19 11:33N 37°52' E 011°20'1010.2
2016-Aug-19 10:33N 37°57' E 011°09'1010.4
2016-Aug-19 09:33N 38°01' E 010°57'10 9.9
2016-Aug-19 08:33N 38°04' E 010°45'1010.0
2016-Aug-19 07:33N 38°07' E 010°33'7 6.9
2016-Aug-19 06:34N 38°09' E 010°25'8 8.1
2016-Aug-19 05:33N 38°11' E 010°14'10 9.7
2016-Aug-19 04:33N 38°14' E 010°03'10 9.8
2016-Aug-19 03:33N 38°17' E 009°51'9 9.5
2016-Aug-19 02:33N 38°19' E 009°39'9 9.3
2016-Aug-19 01:33N 38°22' E 009°28'9 9.4
2016-Aug-19 00:33N 38°25' E 009°16'9 9.4
2016-Aug-18 23:33N 38°28' E 009°05'9 9.4
2016-Aug-18 22:33N 38°30' E 008°53'10 9.5
2016-Aug-18 21:33N 38°33' E 008°42'140 9.3
2016-Aug-18 06:33N 38°33' E 005°43'2010.1
2016-Aug-18 04:32N 38°32' E 005°17'1310.2
2016-Aug-18 03:16N 38°32' E 005°00'7 9.9
2016-Aug-18 02:33N 38°32' E 004°51'10 9.7
2016-Aug-18 01:33N 38°32' E 004°39'11 9.3
2016-Aug-18 00:23N 38°32' E 004°25'8 9.0
2016-Aug-17 23:33N 38°32' E 004°15'9 9.0
2016-Aug-17 22:31N 38°31' E 004°03'9 9.0
2016-Aug-17 21:28N 38°31' E 003°51'8 9.1
2016-Aug-17 20:33N 38°31' E 003°41'9 9.1
2016-Aug-17 19:34N 38°31' E 003°29'9 9.1
2016-Aug-17 18:34N 38°30' E 003°18'9 9.4
2016-Aug-17 17:34N 38°30' E 003°06'9 9.4
2016-Aug-17 16:33N 38°27' E 002°54'10 9.5
2016-Aug-17 15:33N 38°23' E 002°43'10 9.6
2016-Aug-17 14:32N 38°19' E 002°32'10 9.7
2016-Aug-17 13:33N 38°15' E 002°21'29 9.8
2016-Aug-17 10:32N 38°01' E 001°48'10 9.8
2016-Aug-17 09:33N 37°57' E 001°37'10 9.7
2016-Aug-17 08:34N 37°52' E 001°26'11 9.5
2016-Aug-17 07:24N 37°47' E 001°14'8 9.5
2016-Aug-17 06:33N 37°43' E 001°05'19 9.4
2016-Aug-17 04:33N 37°34' E 000°44'9 9.2
2016-Aug-17 03:34N 37°30' E 000°33'9 9.1
2016-Aug-17 02:33N 37°26' E 000°23'9 9.1
2016-Aug-17 01:34N 37°22' E 000°13'9 9.3
2016-Aug-17 00:34N 37°18' E 000°03'10 9.7
2016-Aug-16 23:34N 37°13' W 000°08'10 9.9
2016-Aug-16 22:34N 37°09' W 000°19'1010.1
2016-Aug-16 21:33N 37°04' W 000°31'1010.4
2016-Aug-16 20:34N 36°59' W 000°42'1010.2
2016-Aug-16 19:32N 36°55' W 000°54'32 9.7
2016-Aug-16 16:16N 36°40' W 001°29'35 9.3
2016-Aug-16 12:32N 36°24' W 002°07'10 8.8
2016-Aug-16 11:25N 36°21' W 002°19'8 8.9
2016-Aug-16 10:30N 36°19' W 002°29'9 9.4
2016-Aug-16 09:33N 36°17' W 002°39'12610.2
2016-Aug-15 21:12N 35°57' W 005°13'5 8.4
2016-Aug-15 20:34N 35°55' W 005°19'1 0.8
2016-Aug-15 19:33N 35°54' W 005°19'0 0.0
2016-Aug-15 18:33N 35°54' W 005°19'0 0.0
2016-Aug-15 17:33N 35°54' W 005°19'0 0.0
2016-Aug-15 16:33N 35°54' W 005°19'0 0.0
2016-Aug-15 15:33N 35°54' W 005°19'4 4.3
2016-Aug-15 14:33N 35°57' W 005°23'10 8.9
2016-Aug-15 13:29N 35°55' W 005°35'10 9.9
2016-Aug-15 12:29N 35°54' W 005°47'132 8.8
2016-Aug-14 21:33N 36°23' W 008°26'9 9.3
2016-Aug-14 20:33N 36°25' W 008°38'9 9.2
2016-Aug-14 19:33N 36°28' W 008°48'9 9.1
2016-Aug-14 18:33N 36°30' W 008°59'9 9.2
2016-Aug-14 17:33N 36°33' W 009°10'9 9.0
2016-Aug-14 16:33N 36°37' W 009°20'9 9.4
2016-Aug-14 15:33N 36°44' W 009°28'9 9.0
2016-Aug-14 14:32N 36°52' W 009°34'9 9.5
2016-Aug-14 13:33N 37°01' W 009°37'10 9.5
2016-Aug-14 12:32N 37°10' W 009°39'9 9.5
2016-Aug-14 11:33N 37°20' W 009°42'10 9.8
2016-Aug-14 10:33N 37°29' W 009°45'1010.0
2016-Aug-14 09:33N 37°39' W 009°48'1010.1
2016-Aug-14 08:33N 37°49' W 009°50'1010.2
2016-Aug-14 07:33N 37°59' W 009°53'1010.1
2016-Aug-14 06:33N 38°08' W 009°56'2010.0
2016-Aug-14 04:33N 38°28' W 010°02'10 9.9
2016-Aug-14 03:33N 38°38' W 010°05'10 9.9
2016-Aug-14 02:33N 38°48' W 010°06'10 9.8
2016-Aug-14 01:33N 38°57' W 010°06'1010.2
2016-Aug-14 00:33N 39°07' W 010°04'1010.0
2016-Aug-13 23:33N 39°17' W 010°03'9 9.4
2016-Aug-13 22:33N 39°26' W 009°57'1010.3
2016-Aug-13 21:33N 39°32' W 009°47'1010.2
2016-Aug-13 20:33N 39°39' W 009°37'  

Dump ship's entire track history